sensor_id;sensor_type;location;lat;lon;timestamp;pressure;altitude;pressure_sealevel;temperature;humidity
8298;BME280;4187;42.778;23.242;2023-03-13T00:00:47;95556.47;;;-0.36;100.00
8298;BME280;4187;42.778;23.242;2023-03-13T00:03:14;95556.31;;;-0.33;100.00
8298;BME280;4187;42.778;23.242;2023-03-13T00:05:40;95559.59;;;-0.29;100.00
8298;BME280;4187;42.778;23.242;2023-03-13T00:08:07;95565.16;;;-0.37;100.00
8298;BME280;4187;42.778;23.242;2023-03-13T00:10:37;95554.31;;;-0.45;100.00
8298;BME280;4187;42.778;23.242;2023-03-13T00:13:04;95568.47;;;-0.52;100.00
8298;BME280;4187;42.778;23.242;2023-03-13T00:15:32;95575.69;;;-0.58;100.00
8298;BME280;4187;42.778;23.242;2023-03-13T00:17:59;95577.16;;;-0.53;100.00
8298;BME280;4187;42.778;23.242;2023-03-13T00:20:26;95569.00;;;-0.45;100.00
8298;BME280;4187;42.778;23.242;2023-03-13T00:22:52;95574.91;;;-0.42;100.00
8298;BME280;4187;42.778;23.242;2023-03-13T00:25:19;95572.31;;;-0.42;100.00
8298;BME280;4187;42.778;23.242;2023-03-13T00:27:47;95578.34;;;-0.24;100.00
8298;BME280;4187;42.778;23.242;2023-03-13T00:30:15;95571.88;;;-0.33;100.00
8298;BME280;4187;42.778;23.242;2023-03-13T00:32:42;95569.19;;;-0.31;100.00
8298;BME280;4187;42.778;23.242;2023-03-13T00:35:10;95569.81;;;-0.26;100.00
8298;BME280;4187;42.778;23.242;2023-03-13T00:37:37;95577.78;;;-0.12;100.00
8298;BME280;4187;42.778;23.242;2023-03-13T00:40:05;95569.00;;;-0.10;100.00
8298;BME280;4187;42.778;23.242;2023-03-13T00:42:32;95577.03;;;0.03;100.00
8298;BME280;4187;42.778;23.242;2023-03-13T00:45:00;95578.81;;;0.03;100.00
8298;BME280;4187;42.778;23.242;2023-03-13T00:47:27;95577.03;;;0.03;100.00
8298;BME280;4187;42.778;23.242;2023-03-13T00:49:54;95570.19;;;0.02;100.00
8298;BME280;4187;42.778;23.242;2023-03-13T00:52:21;95571.03;;;-0.16;100.00
8298;BME280;4187;42.778;23.242;2023-03-13T00:54:48;95561.84;;;-0.22;100.00
8298;BME280;4187;42.778;23.242;2023-03-13T00:57:15;95569.34;;;-0.34;100.00
8298;BME280;4187;42.778;23.242;2023-03-13T00:59:42;95567.50;;;-0.32;100.00
8298;BME280;4187;42.778;23.242;2023-03-13T01:02:10;95565.75;;;-0.32;100.00
8298;BME280;4187;42.778;23.242;2023-03-13T01:04:37;95563.34;;;-0.18;100.00
8298;BME280;4187;42.778;23.242;2023-03-13T01:07:04;95564.81;;;-0.12;100.00
8298;BME280;4187;42.778;23.242;2023-03-13T01:09:30;95551.00;;;-0.13;100.00
8298;BME280;4187;42.778;23.242;2023-03-13T01:11:57;95563.06;;;-0.12;100.00
8298;BME280;4187;42.778;23.242;2023-03-13T01:14:24;95563.97;;;-0.13;100.00
8298;BME280;4187;42.778;23.242;2023-03-13T01:16:51;95572.13;;;-0.20;100.00
8298;BME280;4187;42.778;23.242;2023-03-13T01:19:19;95566.56;;;-0.30;100.00
8298;BME280;4187;42.778;23.242;2023-03-13T01:21:46;95567.16;;;-0.25;100.00
8298;BME280;4187;42.778;23.242;2023-03-13T01:24:13;95566.72;;;-0.16;100.00
8298;BME280;4187;42.778;23.242;2023-03-13T01:26:41;95573.72;;;-0.18;100.00
8298;BME280;4187;42.778;23.242;2023-03-13T01:29:07;95571.41;;;-0.41;100.00
8298;BME280;4187;42.778;23.242;2023-03-13T01:31:35;95555.03;;;-0.60;100.00
8298;BME280;4187;42.778;23.242;2023-03-13T01:34:03;95591.91;;;-0.36;100.00
8298;BME280;4187;42.778;23.242;2023-03-13T01:36:34;95586.22;;;-0.26;100.00
8298;BME280;4187;42.778;23.242;2023-03-13T01:39:01;95581.59;;;-0.19;100.00
8298;BME280;4187;42.778;23.242;2023-03-13T01:41:28;95575.94;;;-0.10;100.00
8298;BME280;4187;42.778;23.242;2023-03-13T01:43:56;95576.50;;;-0.04;100.00
8298;BME280;4187;42.778;23.242;2023-03-13T01:46:24;95568.25;;;-0.12;100.00
8298;BME280;4187;42.778;23.242;2023-03-13T01:48:54;95591.31;;;-0.06;100.00
8298;BME280;4187;42.778;23.242;2023-03-13T01:51:26;95585.94;;;-0.03;100.00
8298;BME280;4187;42.778;23.242;2023-03-13T01:53:59;95591.94;;;-0.01;100.00
8298;BME280;4187;42.778;23.242;2023-03-13T01:56:33;95563.97;;;-0.13;100.00
8298;BME280;4187;42.778;23.242;2023-03-13T01:59:02;95576.22;;;0.03;100.00
8298;BME280;4187;42.778;23.242;2023-03-13T02:01:30;95573.75;;;-0.01;100.00
8298;BME280;4187;42.778;23.242;2023-03-13T02:03:58;95576.97;;;0.05;100.00
8298;BME280;4187;42.778;23.242;2023-03-13T02:06:27;95575.22;;;0.05;100.00
8298;BME280;4187;42.778;23.242;2023-03-13T02:08:58;95576.22;;;0.03;100.00
8298;BME280;4187;42.778;23.242;2023-03-13T02:11:34;95600.78;;;0.13;100.00
8298;BME280;4187;42.778;23.242;2023-03-13T02:14:04;95606.88;;;0.12;100.00
8298;BME280;4187;42.778;23.242;2023-03-13T02:16:32;95604.09;;;0.16;100.00
8298;BME280;4187;42.778;23.242;2023-03-13T02:19:01;95604.91;;;0.17;100.00
8298;BME280;4187;42.778;23.242;2023-03-13T02:21:36;95614.47;;;0.16;100.00
8298;BME280;4187;42.778;23.242;2023-03-13T02:24:12;95615.41;;;0.14;100.00
8298;BME280;4187;42.778;23.242;2023-03-13T02:26:46;95618.81;;;0.16;100.00
8298;BME280;4187;42.778;23.242;2023-03-13T02:29:13;95614.81;;;0.09;100.00
8298;BME280;4187;42.778;23.242;2023-03-13T02:31:44;95636.19;;;0.14;100.00
8298;BME280;4187;42.778;23.242;2023-03-13T02:34:13;95610.22;;;-0.04;100.00
8298;BME280;4187;42.778;23.242;2023-03-13T02:36:44;95626.50;;;0.00;100.00
8298;BME280;4187;42.778;23.242;2023-03-13T02:39:12;95607.44;;;-0.18;100.00
8298;BME280;4187;42.778;23.242;2023-03-13T02:41:42;95644.66;;;0.00;100.00
8298;BME280;4187;42.778;23.242;2023-03-13T02:44:11;95643.03;;;-0.03;100.00
8298;BME280;4187;42.778;23.242;2023-03-13T02:46:45;95647.31;;;-0.02;100.00
8298;BME280;4187;42.778;23.242;2023-03-13T02:49:20;95633.84;;;-0.10;100.00
8298;BME280;4187;42.778;23.242;2023-03-13T02:51:47;95651.94;;;-0.08;100.00
8298;BME280;4187;42.778;23.242;2023-03-13T02:54:17;95649.56;;;-0.13;100.00
8298;BME280;4187;42.778;23.242;2023-03-13T02:56:47;95645.22;;;-0.12;100.00
8298;BME280;4187;42.778;23.242;2023-03-13T02:59:16;95635.13;;;-0.18;100.00
8298;BME280;4187;42.778;23.242;2023-03-13T03:01:43;95648.81;;;-0.15;100.00
8298;BME280;4187;42.778;23.242;2023-03-13T03:04:10;95656.00;;;-0.21;100.00
8298;BME280;4187;42.778;23.242;2023-03-13T03:06:37;95661.44;;;-0.26;100.00
8298;BME280;4187;42.778;23.242;2023-03-13T03:09:04;95664.88;;;-0.25;100.00
8298;BME280;4187;42.778;23.242;2023-03-13T03:11:30;95677.69;;;-0.22;100.00
8298;BME280;4187;42.778;23.242;2023-03-13T03:13:57;95682.16;;;-0.26;100.00
8298;BME280;4187;42.778;23.242;2023-03-13T03:16:25;95686.38;;;-0.23;100.00
8298;BME280;4187;42.778;23.242;2023-03-13T03:18:52;95691.56;;;-0.23;100.00
8298;BME280;4187;42.778;23.242;2023-03-13T03:21:19;95691.56;;;-0.42;100.00
8298;BME280;4187;42.778;23.242;2023-03-13T03:23:48;95683.16;;;-0.47;100.00
8298;BME280;4187;42.778;23.242;2023-03-13T03:26:15;95687.88;;;-0.56;100.00
8298;BME280;4187;42.778;23.242;2023-03-13T03:28:42;95677.09;;;-0.66;100.00
8298;BME280;4187;42.778;23.242;2023-03-13T03:31:12;95687.88;;;-0.75;100.00
8298;BME280;4187;42.778;23.242;2023-03-13T03:33:41;95685.19;;;-0.92;100.00
8298;BME280;4187;42.778;23.242;2023-03-13T03:36:10;95697.75;;;-1.03;100.00
8298;BME280;4187;42.778;23.242;2023-03-13T03:38:38;95714.56;;;-1.13;100.00
8298;BME280;4187;42.778;23.242;2023-03-13T03:41:05;95698.28;;;-1.36;100.00
8298;BME280;4187;42.778;23.242;2023-03-13T03:43:32;95716.66;;;-1.22;100.00
8298;BME280;4187;42.778;23.242;2023-03-13T03:45:59;95734.78;;;-1.22;100.00
8298;BME280;4187;42.778;23.242;2023-03-13T03:48:26;95718.41;;;-1.22;100.00
8298;BME280;4187;42.778;23.242;2023-03-13T03:50:54;95729.25;;;-1.34;100.00
8298;BME280;4187;42.778;23.242;2023-03-13T03:53:21;95695.44;;;-1.71;100.00
8298;BME280;4187;42.778;23.242;2023-03-13T03:55:48;95727.69;;;-1.58;100.00
8298;BME280;4187;42.778;23.242;2023-03-13T03:58:14;95727.69;;;-1.58;100.00
8298;BME280;4187;42.778;23.242;2023-03-13T04:00:42;95730.06;;;-1.54;100.00
8298;BME280;4187;42.778;23.242;2023-03-13T04:03:10;95742.19;;;-1.54;100.00
8298;BME280;4187;42.778;23.242;2023-03-13T04:05:37;95745.91;;;-1.61;100.00
8298;BME280;4187;42.778;23.242;2023-03-13T04:08:06;95755.19;;;-1.56;100.00
8298;BME280;4187;42.778;23.242;2023-03-13T04:10:33;95755.72;;;-1.48;100.00
8298;BME280;4187;42.778;23.242;2023-03-13T04:12:59;95766.38;;;-1.55;100.00
8298;BME280;4187;42.778;23.242;2023-03-13T04:15:27;95768.47;;;-1.65;100.00
8298;BME280;4187;42.778;23.242;2023-03-13T04:17:53;95762.75;;;-1.73;100.00
8298;BME280;4187;42.778;23.242;2023-03-13T04:20:20;95760.03;;;-1.70;100.00
8298;BME280;4187;42.778;23.242;2023-03-13T04:22:47;95761.31;;;-1.80;100.00
8298;BME280;4187;42.778;23.242;2023-03-13T04:25:15;95766.84;;;-1.89;100.00
8298;BME280;4187;42.778;23.242;2023-03-13T04:27:42;95772.41;;;-2.00;100.00
8298;BME280;4187;42.778;23.242;2023-03-13T04:30:10;95770.13;;;-2.07;100.00
8298;BME280;4187;42.778;23.242;2023-03-13T04:32:37;95777.78;;;-2.04;100.00
8298;BME280;4187;42.778;23.242;2023-03-13T04:35:04;95790.91;;;-2.10;100.00
8298;BME280;4187;42.778;23.242;2023-03-13T04:37:31;95786.00;;;-2.16;100.00
8298;BME280;4187;42.778;23.242;2023-03-13T04:39:57;95796.72;;;-2.27;100.00
8298;BME280;4187;42.778;23.242;2023-03-13T04:42:26;95793.44;;;-2.32;100.00
8298;BME280;4187;42.778;23.242;2023-03-13T04:44:53;95770.75;;;-2.47;100.00
8298;BME280;4187;42.778;23.242;2023-03-13T04:47:20;95807.75;;;-2.22;100.00
8298;BME280;4187;42.778;23.242;2023-03-13T04:49:46;95808.56;;;-2.21;100.00
8298;BME280;4187;42.778;23.242;2023-03-13T04:52:13;95812.19;;;-2.25;100.00
8298;BME280;4187;42.778;23.242;2023-03-13T04:54:40;95815.94;;;-2.34;100.00
8298;BME280;4187;42.778;23.242;2023-03-13T04:57:07;95812.47;;;-2.33;100.00
8298;BME280;4187;42.778;23.242;2023-03-13T04:59:35;95803.09;;;-2.35;100.00
8298;BME280;4187;42.778;23.242;2023-03-13T05:02:02;95802.75;;;-2.51;100.00
8298;BME280;4187;42.778;23.242;2023-03-13T05:04:29;95776.84;;;-2.73;100.00
8298;BME280;4187;42.778;23.242;2023-03-13T05:06:55;95823.41;;;-2.50;100.00
8298;BME280;4187;42.778;23.242;2023-03-13T05:09:22;95823.50;;;-2.53;100.00
8298;BME280;4187;42.778;23.242;2023-03-13T05:11:49;95819.56;;;-2.63;100.00
8298;BME280;4187;42.778;23.242;2023-03-13T05:14:16;95822.97;;;-2.62;100.00
8298;BME280;4187;42.778;23.242;2023-03-13T05:16:45;95835.56;;;-2.53;100.00
8298;BME280;4187;42.778;23.242;2023-03-13T05:19:12;95842.25;;;-2.48;100.00
8298;BME280;4187;42.778;23.242;2023-03-13T05:21:38;95829.03;;;-2.38;100.00
8298;BME280;4187;42.778;23.242;2023-03-13T05:24:06;95831.50;;;-2.35;100.00
8298;BME280;4187;42.778;23.242;2023-03-13T05:26:32;95835.75;;;-2.34;100.00
8298;BME280;4187;42.778;23.242;2023-03-13T05:28:59;95836.44;;;-2.29;100.00
8298;BME280;4187;42.778;23.242;2023-03-13T05:31:26;95831.91;;;-2.23;100.00
8298;BME280;4187;42.778;23.242;2023-03-13T05:33:55;95845.31;;;-2.13;100.00
8298;BME280;4187;42.778;23.242;2023-03-13T05:36:21;95851.59;;;-1.96;100.00
8298;BME280;4187;42.778;23.242;2023-03-13T05:38:48;95852.53;;;-1.75;100.00
8298;BME280;4187;42.778;23.242;2023-03-13T05:41:15;95863.81;;;-1.54;100.00
8298;BME280;4187;42.778;23.242;2023-03-13T05:43:42;95861.25;;;-1.33;100.00
8298;BME280;4187;42.778;23.242;2023-03-13T05:46:09;95857.69;;;-1.08;100.00
8298;BME280;4187;42.778;23.242;2023-03-13T05:48:36;95855.66;;;-0.80;100.00
8298;BME280;4187;42.778;23.242;2023-03-13T05:51:04;95855.47;;;-0.55;100.00
8298;BME280;4187;42.778;23.242;2023-03-13T05:53:31;95870.75;;;-0.29;100.00
8298;BME280;4187;42.778;23.242;2023-03-13T05:55:58;95869.00;;;-0.09;100.00
8298;BME280;4187;42.778;23.242;2023-03-13T05:58:24;95877.50;;;0.14;100.00
8298;BME280;4187;42.778;23.242;2023-03-13T06:00:51;95856.63;;;0.17;100.00
8298;BME280;4187;42.778;23.242;2023-03-13T06:03:18;95867.38;;;0.46;100.00
8298;BME280;4187;42.778;23.242;2023-03-13T06:05:45;95861.84;;;0.54;100.00
8298;BME280;4187;42.778;23.242;2023-03-13T06:08:13;95880.22;;;0.68;100.00
8298;BME280;4187;42.778;23.242;2023-03-13T06:10:40;95882.25;;;0.80;100.00
8298;BME280;4187;42.778;23.242;2023-03-13T06:13:06;95874.94;;;0.88;100.00
8298;BME280;4187;42.778;23.242;2023-03-13T06:15:33;95873.72;;;0.95;100.00
8298;BME280;4187;42.778;23.242;2023-03-13T06:18:00;95879.09;;;1.09;100.00
8298;BME280;4187;42.778;23.242;2023-03-13T06:20:27;95873.00;;;1.28;100.00
8298;BME280;4187;42.778;23.242;2023-03-13T06:22:54;95869.06;;;1.38;100.00
8298;BME280;4187;42.778;23.242;2023-03-13T06:25:22;95875.00;;;1.57;100.00
8298;BME280;4187;42.778;23.242;2023-03-13T06:27:49;95861.84;;;1.77;100.00
8298;BME280;4187;42.778;23.242;2023-03-13T06:30:17;95861.75;;;1.96;100.00
8298;BME280;4187;42.778;23.242;2023-03-13T06:32:44;95869.28;;;2.17;100.00
8298;BME280;4187;42.778;23.242;2023-03-13T06:35:10;95879.84;;;2.31;97.73
8298;BME280;4187;42.778;23.242;2023-03-13T06:37:37;95887.34;;;2.53;98.92
8298;BME280;4187;42.778;23.242;2023-03-13T06:40:05;95888.63;;;2.77;96.09
8298;BME280;4187;42.778;23.242;2023-03-13T06:42:34;95891.41;;;2.90;95.45
8298;BME280;4187;42.778;23.242;2023-03-13T06:45:01;95890.56;;;3.05;94.39
8298;BME280;4187;42.778;23.242;2023-03-13T06:47:29;95888.78;;;3.06;94.20
8298;BME280;4187;42.778;23.242;2023-03-13T06:49:56;95884.84;;;3.14;95.68
8298;BME280;4187;42.778;23.242;2023-03-13T06:52:23;95885.06;;;3.25;93.89
8298;BME280;4187;42.778;23.242;2023-03-13T06:54:50;95891.22;;;3.40;93.34
8298;BME280;4187;42.778;23.242;2023-03-13T06:57:17;95869.16;;;3.45;91.76
8298;BME280;4187;42.778;23.242;2023-03-13T06:59:45;95870.69;;;4.07;100.00
8298;BME280;4187;42.778;23.242;2023-03-13T07:02:12;95878.28;;;4.40;94.59
8298;BME280;4187;42.778;23.242;2023-03-13T07:04:39;95880.69;;;4.57;88.19
8298;BME280;4187;42.778;23.242;2023-03-13T07:07:06;95883.13;;;4.74;86.08
8298;BME280;4187;42.778;23.242;2023-03-13T07:09:33;95875.16;;;4.90;86.05
8298;BME280;4187;42.778;23.242;2023-03-13T07:12:00;95881.81;;;5.08;84.34
8298;BME280;4187;42.778;23.242;2023-03-13T07:14:27;95881.53;;;5.27;89.29
8298;BME280;4187;42.778;23.242;2023-03-13T07:16:57;95872.66;;;5.42;83.12
8298;BME280;4187;42.778;23.242;2023-03-13T07:19:24;95857.88;;;5.41;81.37
8298;BME280;4187;42.778;23.242;2023-03-13T07:21:52;95863.94;;;5.68;81.97
8298;BME280;4187;42.778;23.242;2023-03-13T07:24:18;95865.31;;;5.74;81.08
8298;BME280;4187;42.778;23.242;2023-03-13T07:26:45;95863.50;;;5.88;81.54
8298;BME280;4187;42.778;23.242;2023-03-13T07:29:12;95875.28;;;6.21;84.25
8298;BME280;4187;42.778;23.242;2023-03-13T07:31:39;95872.75;;;6.44;81.15
8298;BME280;4187;42.778;23.242;2023-03-13T07:34:07;95874.53;;;6.69;80.44
8298;BME280;4187;42.778;23.242;2023-03-13T07:36:34;95868.75;;;6.89;82.35
8298;BME280;4187;42.778;23.242;2023-03-13T07:39:00;95868.66;;;7.14;81.69
8298;BME280;4187;42.778;23.242;2023-03-13T07:41:27;95881.97;;;7.24;75.76
8298;BME280;4187;42.778;23.242;2023-03-13T07:43:54;95882.06;;;7.22;77.30
8298;BME280;4187;42.778;23.242;2023-03-13T07:46:21;95874.19;;;7.22;76.03
8298;BME280;4187;42.778;23.242;2023-03-13T07:48:48;95861.28;;;7.19;75.20
8298;BME280;4187;42.778;23.242;2023-03-13T07:51:18;95868.78;;;7.37;76.11
8298;BME280;4187;42.778;23.242;2023-03-13T07:53:45;95869.91;;;7.69;73.16
8298;BME280;4187;42.778;23.242;2023-03-13T07:56:14;95865.19;;;7.85;69.57
8298;BME280;4187;42.778;23.242;2023-03-13T07:58:42;95861.44;;;8.11;69.57
8298;BME280;4187;42.778;23.242;2023-03-13T08:01:09;95865.00;;;8.34;70.16
8298;BME280;4187;42.778;23.242;2023-03-13T08:03:38;95859.28;;;8.51;68.78
8298;BME280;4187;42.778;23.242;2023-03-13T08:06:06;95862.28;;;8.69;69.03
8298;BME280;4187;42.778;23.242;2023-03-13T08:08:36;95860.59;;;8.90;67.16
8298;BME280;4187;42.778;23.242;2023-03-13T08:11:04;95866.00;;;8.99;65.71
8298;BME280;4187;42.778;23.242;2023-03-13T08:13:32;95868.25;;;9.04;66.24
8298;BME280;4187;42.778;23.242;2023-03-13T08:16:04;95860.59;;;9.01;65.23
8298;BME280;4187;42.778;23.242;2023-03-13T08:18:32;95863.91;;;9.14;65.86
8298;BME280;4187;42.778;23.242;2023-03-13T08:21:04;95838.81;;;9.10;64.44
8298;BME280;4187;42.778;23.242;2023-03-13T08:23:32;95860.78;;;9.31;65.39
8298;BME280;4187;42.778;23.242;2023-03-13T08:26:05;95871.50;;;9.61;65.40
8298;BME280;4187;42.778;23.242;2023-03-13T08:28:32;95865.31;;;9.83;64.33
8298;BME280;4187;42.778;23.242;2023-03-13T08:31:06;95845.47;;;10.00;64.00
8298;BME280;4187;42.778;23.242;2023-03-13T08:33:33;95859.41;;;10.11;62.05
8298;BME280;4187;42.778;23.242;2023-03-13T08:36:07;95860.56;;;10.30;63.95
8298;BME280;4187;42.778;23.242;2023-03-13T08:38:33;95857.44;;;10.45;61.01
8298;BME280;4187;42.778;23.242;2023-03-13T08:41:00;95854.47;;;10.59;60.06
8298;BME280;4187;42.778;23.242;2023-03-13T08:43:28;95859.94;;;10.67;61.19
8298;BME280;4187;42.778;23.242;2023-03-13T08:45:55;95855.66;;;10.76;59.90
8298;BME280;4187;42.778;23.242;2023-03-13T08:48:22;95847.13;;;10.93;58.83
8298;BME280;4187;42.778;23.242;2023-03-13T08:51:01;95844.28;;;11.15;57.65
8298;BME280;4187;42.778;23.242;2023-03-13T08:53:29;95856.56;;;11.26;57.08
8298;BME280;4187;42.778;23.242;2023-03-13T08:55:55;95859.50;;;11.42;57.05
8298;BME280;4187;42.778;23.242;2023-03-13T08:58:23;95861.34;;;11.51;53.81
8298;BME280;4187;42.778;23.242;2023-03-13T09:00:51;95862.88;;;11.63;54.23
8298;BME280;4187;42.778;23.242;2023-03-13T09:03:18;95848.59;;;11.85;73.65
8298;BME280;4187;42.778;23.242;2023-03-13T09:05:44;95821.03;;;12.07;62.91
8298;BME280;4187;42.778;23.242;2023-03-13T09:08:12;95838.28;;;12.86;70.34
8298;BME280;4187;42.778;23.242;2023-03-13T09:10:39;95851.31;;;13.16;52.93
8298;BME280;4187;42.778;23.242;2023-03-13T09:13:07;95849.56;;;12.88;48.64
8298;BME280;4187;42.778;23.242;2023-03-13T09:15:34;95847.81;;;12.69;48.11
8298;BME280;4187;42.778;23.242;2023-03-13T09:18:02;95859.72;;;12.46;47.89
8298;BME280;4187;42.778;23.242;2023-03-13T09:20:28;95853.22;;;12.02;51.74
8298;BME280;4187;42.778;23.242;2023-03-13T09:22:55;95861.22;;;11.62;49.31
8298;BME280;4187;42.778;23.242;2023-03-13T09:25:22;95854.94;;;11.63;49.79
8298;BME280;4187;42.778;23.242;2023-03-13T09:27:49;95856.81;;;12.01;51.27
8298;BME280;4187;42.778;23.242;2023-03-13T09:30:16;95846.44;;;13.02;59.48
8298;BME280;4187;42.778;23.242;2023-03-13T09:32:43;95842.91;;;13.48;60.98
8298;BME280;4187;42.778;23.242;2023-03-13T09:35:11;95826.19;;;14.00;65.52
8298;BME280;4187;42.778;23.242;2023-03-13T09:37:38;95836.41;;;14.48;50.89
8298;BME280;4187;42.778;23.242;2023-03-13T09:40:07;95825.31;;;14.53;47.83
8298;BME280;4187;42.778;23.242;2023-03-13T09:42:44;95821.81;;;14.52;47.81
8298;BME280;4187;42.778;23.242;2023-03-13T09:45:15;95819.38;;;14.59;46.77
8298;BME280;4187;42.778;23.242;2023-03-13T09:47:45;95830.63;;;14.78;43.76
8298;BME280;4187;42.778;23.242;2023-03-13T09:50:17;95817.19;;;14.80;45.30
8298;BME280;4187;42.778;23.242;2023-03-13T09:52:48;95831.81;;;14.84;42.37
8298;BME280;4187;42.778;23.242;2023-03-13T09:55:19;95832.34;;;14.62;41.36
8298;BME280;4187;42.778;23.242;2023-03-13T09:57:51;95817.44;;;14.69;44.45
8298;BME280;4187;42.778;23.242;2023-03-13T10:00:23;95821.38;;;14.90;44.85
8298;BME280;4187;42.778;23.242;2023-03-13T10:02:55;95816.06;;;14.90;44.24
8298;BME280;4187;42.778;23.242;2023-03-13T10:05:25;95814.97;;;15.01;44.69
8298;BME280;4187;42.778;23.242;2023-03-13T10:07:55;95801.69;;;15.09;40.80
8298;BME280;4187;42.778;23.242;2023-03-13T10:10:32;95804.16;;;14.94;41.69
8298;BME280;4187;42.778;23.242;2023-03-13T10:13:11;95800.59;;;14.86;46.73
8298;BME280;4187;42.778;23.242;2023-03-13T10:15:44;95790.06;;;15.02;44.94
8298;BME280;4187;42.778;23.242;2023-03-13T10:18:16;95796.97;;;15.29;45.61
8298;BME280;4187;42.778;23.242;2023-03-13T10:20:47;95797.47;;;15.24;43.53
8298;BME280;4187;42.778;23.242;2023-03-13T10:23:18;95787.34;;;15.36;46.48
8298;BME280;4187;42.778;23.242;2023-03-13T10:25:46;95782.78;;;15.46;42.89
8298;BME280;4187;42.778;23.242;2023-03-13T10:28:15;95773.47;;;15.50;44.89
8298;BME280;4187;42.778;23.242;2023-03-13T10:30:47;95774.00;;;15.78;45.83
8298;BME280;4187;42.778;23.242;2023-03-13T10:33:22;95762.22;;;16.04;43.30
8298;BME280;4187;42.778;23.242;2023-03-13T10:36:03;95752.06;;;16.08;41.76
8298;BME280;4187;42.778;23.242;2023-03-13T10:38:33;95756.22;;;15.94;41.99
8298;BME280;4187;42.778;23.242;2023-03-13T10:41:16;95754.75;;;16.00;45.03
8298;BME280;4187;42.778;23.242;2023-03-13T10:43:50;95723.44;;;15.62;40.80
8298;BME280;4187;42.778;23.242;2023-03-13T10:46:25;95764.22;;;15.28;39.84
8298;BME280;4187;42.778;23.242;2023-03-13T10:48:53;95748.47;;;14.93;40.99
8298;BME280;4187;42.778;23.242;2023-03-13T10:51:23;95752.25;;;14.82;41.25
8298;BME280;4187;42.778;23.242;2023-03-13T10:53:50;95742.25;;;14.76;41.80
8298;BME280;4187;42.778;23.242;2023-03-13T10:56:22;95731.41;;;15.04;45.96
8298;BME280;4187;42.778;23.242;2023-03-13T10:58:51;95736.34;;;14.90;43.05
8298;BME280;4187;42.778;23.242;2023-03-13T11:01:21;95698.94;;;14.42;40.77
8298;BME280;4187;42.778;23.242;2023-03-13T11:03:50;95728.22;;;14.58;42.47
8298;BME280;4187;42.778;23.242;2023-03-13T11:06:26;95732.00;;;14.48;42.38
8298;BME280;4187;42.778;23.242;2023-03-13T11:09:03;95726.13;;;14.70;44.81
8298;BME280;4187;42.778;23.242;2023-03-13T11:11:30;95721.63;;;15.12;45.54
8298;BME280;4187;42.778;23.242;2023-03-13T11:14:07;95718.09;;;15.53;47.62
8298;BME280;4187;42.778;23.242;2023-03-13T11:16:39;95719.13;;;16.01;42.30
8298;BME280;4187;42.778;23.242;2023-03-13T11:19:36;95707.81;;;15.83;39.56
8298;BME280;4187;42.778;23.242;2023-03-13T11:25:03;95698.47;;;15.46;40.42
8298;BME280;4187;42.778;23.242;2023-03-13T11:27:37;95698.47;;;15.46;41.09
8298;BME280;4187;42.778;23.242;2023-03-13T11:30:16;95691.84;;;15.91;45.07
8298;BME280;4187;42.778;23.242;2023-03-13T11:32:50;95667.50;;;16.26;42.02
8298;BME280;4187;42.778;23.242;2023-03-13T11:35:34;95680.59;;;16.44;43.17
8298;BME280;4187;42.778;23.242;2023-03-13T11:38:07;95679.06;;;16.65;41.80
8298;BME280;4187;42.778;23.242;2023-03-13T11:40:40;95668.59;;;17.03;49.27
8298;BME280;4187;42.778;23.242;2023-03-13T11:46:12;95632.47;;;17.68;46.86
8298;BME280;4187;42.778;23.242;2023-03-13T11:49:11;95655.97;;;18.10;38.57
8298;BME280;4187;42.778;23.242;2023-03-13T11:51:53;95655.53;;;17.84;40.47
8298;BME280;4187;42.778;23.242;2023-03-13T11:54:35;95650.41;;;17.60;36.82
8298;BME280;4187;42.778;23.242;2023-03-13T11:57:11;95643.94;;;16.62;38.42
8298;BME280;4187;42.778;23.242;2023-03-13T11:59:44;95636.97;;;16.45;39.83
8298;BME280;4187;42.778;23.242;2023-03-13T12:02:21;95632.81;;;16.42;39.25
8298;BME280;4187;42.778;23.242;2023-03-13T12:04:53;95623.81;;;16.59;42.45
8298;BME280;4187;42.778;23.242;2023-03-13T12:07:26;95634.63;;;16.58;37.64
8298;BME280;4187;42.778;23.242;2023-03-13T12:10:00;95627.28;;;16.05;39.06
8298;BME280;4187;42.778;23.242;2023-03-13T12:12:36;95620.25;;;16.12;40.77
8298;BME280;4187;42.778;23.242;2023-03-13T12:15:16;95584.88;;;15.87;38.91
8298;BME280;4187;42.778;23.242;2023-03-13T12:17:48;95608.25;;;16.24;40.55
8298;BME280;4187;42.778;23.242;2023-03-13T12:20:21;95615.13;;;16.57;54.70
8298;BME280;4187;42.778;23.242;2023-03-13T12:22:55;95612.69;;;17.09;41.29
8298;BME280;4187;42.778;23.242;2023-03-13T12:25:29;95615.38;;;17.55;40.10
8298;BME280;4187;42.778;23.242;2023-03-13T12:28:10;95610.34;;;17.97;40.91
8298;BME280;4187;42.778;23.242;2023-03-13T12:30:44;95613.41;;;18.23;38.45
8298;BME280;4187;42.778;23.242;2023-03-13T12:33:18;95555.28;;;17.96;37.62
8298;BME280;4187;42.778;23.242;2023-03-13T12:35:53;95619.81;;;18.52;37.91
8298;BME280;4187;42.778;23.242;2023-03-13T12:38:27;95610.50;;;18.62;35.64
8298;BME280;4187;42.778;23.242;2023-03-13T12:41:07;95604.31;;;18.62;37.13
8298;BME280;4187;42.778;23.242;2023-03-13T12:43:39;95580.38;;;18.54;37.46
8298;BME280;4187;42.778;23.242;2023-03-13T12:46:24;95598.03;;;18.84;36.27
8298;BME280;4187;42.778;23.242;2023-03-13T12:51:56;95603.47;;;19.11;35.52
8298;BME280;4187;42.778;23.242;2023-03-13T12:54:39;95600.28;;;19.23;36.50
8298;BME280;4187;42.778;23.242;2023-03-13T13:00:30;95607.31;;;18.15;34.66
8298;BME280;4187;42.778;23.242;2023-03-13T13:03:12;95607.69;;;18.12;37.89
8298;BME280;4187;42.778;23.242;2023-03-13T13:05:57;95571.31;;;18.25;36.90
8298;BME280;4187;42.778;23.242;2023-03-13T13:08:25;95597.78;;;18.64;36.29
8298;BME280;4187;42.778;23.242;2023-03-13T13:10:53;95582.78;;;18.84;34.66
8298;BME280;4187;42.778;23.242;2023-03-13T13:13:28;95582.75;;;18.99;35.99
8298;BME280;4187;42.778;23.242;2023-03-13T13:16:01;95587.69;;;19.17;35.61
8298;BME280;4187;42.778;23.242;2023-03-13T13:18:31;95578.97;;;19.29;37.80
8298;BME280;4187;42.778;23.242;2023-03-13T13:21:20;95578.88;;;19.23;33.04
8298;BME280;4187;42.778;23.242;2023-03-13T13:23:48;95578.47;;;19.19;34.70
8298;BME280;4187;42.778;23.242;2023-03-13T13:26:48;95573.59;;;19.08;35.59
8298;BME280;4187;42.778;23.242;2023-03-13T13:32:44;95569.69;;;18.89;33.38
8298;BME280;4187;42.778;23.242;2023-03-13T13:35:20;95565.69;;;19.00;34.88